createdAt,value
2023-04-04T00:00:49.534Z,3.10
2023-04-04T00:03:17.987Z,3.20
2023-04-04T00:05:46.069Z,3.00
2023-04-04T00:08:13.969Z,3.30
2023-04-04T00:10:42.291Z,3.20
2023-04-04T00:13:10.644Z,3.70
2023-04-04T00:15:38.689Z,3.60
2023-04-04T00:18:06.510Z,3.80
2023-04-04T00:20:34.599Z,3.90
2023-04-04T00:23:02.658Z,3.90
2023-04-04T00:25:30.596Z,3.40
2023-04-04T00:28:01.219Z,3.90
2023-04-04T00:30:30.484Z,3.40
2023-04-04T00:32:58.813Z,3.00
2023-04-04T00:35:26.899Z,3.70
2023-04-04T00:37:54.874Z,3.30
2023-04-04T00:40:22.783Z,3.60
2023-04-04T00:42:50.788Z,4.00
2023-04-04T00:45:18.696Z,3.80
2023-04-04T00:47:47.971Z,3.80
2023-04-04T00:50:17.985Z,3.90
2023-04-04T00:52:46.994Z,4.20
2023-04-04T00:55:15.494Z,3.90
2023-04-04T00:57:43.569Z,4.10
2023-04-04T01:00:14.648Z,3.80
2023-04-04T01:02:42.862Z,3.80
2023-04-04T01:05:11.617Z,4.00
2023-04-04T01:07:40.602Z,3.60
2023-04-04T01:10:09.464Z,3.80
2023-04-04T01:12:37.601Z,3.70
2023-04-04T01:15:06.039Z,4.30
2023-04-04T01:17:35.338Z,3.90
2023-04-04T01:20:06.725Z,3.50
2023-04-04T01:22:44.028Z,3.80
2023-04-04T01:25:13.774Z,3.90
2023-04-04T01:27:44.967Z,4.30
2023-04-04T01:30:16.872Z,4.60
2023-04-04T01:32:49.174Z,4.20
2023-04-04T01:35:33.578Z,4.00
2023-04-04T01:38:14.013Z,4.80
2023-04-04T01:40:48.782Z,3.60
2023-04-04T01:43:17.698Z,5.00
2023-04-04T01:45:47.445Z,4.40
2023-04-04T01:48:17.267Z,4.70
2023-04-04T01:50:49.171Z,4.10
2023-04-04T01:53:17.917Z,3.90
2023-04-04T01:55:45.925Z,4.00
2023-04-04T01:58:15.744Z,4.20
2023-04-04T02:00:43.804Z,4.20
2023-04-04T02:03:12.077Z,4.10
2023-04-04T02:05:41.114Z,4.00
2023-04-04T02:08:10.667Z,4.60
2023-04-04T02:10:43.536Z,4.20
2023-04-04T02:13:11.461Z,4.50
2023-04-04T02:15:39.856Z,4.50
2023-04-04T02:18:07.914Z,4.60
2023-04-04T02:20:35.959Z,5.00
2023-04-04T02:23:03.925Z,4.80
2023-04-04T02:25:31.817Z,4.80
2023-04-04T02:27:59.716Z,5.30
2023-04-04T02:30:28.299Z,4.80
2023-04-04T02:33:00.028Z,5.10
2023-04-04T02:35:28.344Z,4.20
2023-04-04T02:37:57.138Z,4.30
2023-04-04T02:40:28.115Z,4.30
2023-04-04T02:42:57.185Z,4.00
2023-04-04T02:45:25.735Z,4.20
2023-04-04T02:48:10.758Z,4.70
2023-04-04T02:53:15.026Z,4.30
2023-04-04T02:55:43.783Z,4.60
2023-04-04T02:58:12.270Z,4.60
2023-04-04T03:00:40.863Z,4.20
2023-04-04T03:03:09.377Z,4.40
2023-04-04T03:05:41.700Z,4.40
2023-04-04T03:08:09.770Z,4.90
2023-04-04T03:10:38.409Z,4.70
2023-04-04T03:13:08.559Z,4.80
2023-04-04T03:15:36.880Z,4.90
2023-04-04T03:18:05.256Z,3.90
2023-04-04T03:20:33.799Z,4.20
2023-04-04T03:23:01.855Z,4.40
2023-04-04T03:25:29.978Z,4.30
2023-04-04T03:27:58.278Z,3.80
2023-04-04T03:30:27.493Z,4.20
2023-04-04T03:32:55.607Z,3.90
2023-04-04T03:35:23.739Z,4.80
2023-04-04T03:37:52.077Z,4.20
2023-04-04T03:40:20.053Z,4.60
2023-04-04T03:42:48.056Z,4.90
2023-04-04T03:45:19.465Z,4.60
2023-04-04T03:47:47.461Z,5.20
2023-04-04T03:50:15.886Z,5.00
2023-04-04T03:52:48.760Z,5.00
2023-04-04T03:55:17.171Z,4.80
2023-04-04T03:57:45.097Z,4.30
2023-04-04T04:00:14.749Z,4.30
2023-04-04T04:02:42.771Z,4.20
2023-04-04T04:05:11.341Z,4.20
2023-04-04T04:07:39.258Z,4.00
2023-04-04T04:10:07.532Z,4.20
2023-04-04T04:12:35.786Z,4.00
2023-04-04T04:15:04.037Z,4.40
2023-04-04T04:17:33.336Z,4.50
2023-04-04T04:20:01.614Z,5.20
2023-04-04T04:22:37.189Z,5.20
2023-04-04T04:25:05.807Z,5.60
2023-04-04T04:27:34.694Z,5.60
2023-04-04T04:30:02.789Z,5.90
2023-04-04T04:32:35.510Z,5.90
2023-04-04T04:35:03.895Z,5.60
2023-04-04T04:37:33.104Z,5.80
2023-04-04T04:40:02.309Z,6.10
2023-04-04T04:42:56.150Z,5.20
2023-04-04T04:45:24.994Z,5.40
2023-04-04T04:48:04.182Z,4.60
2023-04-04T04:50:33.509Z,4.50
2023-04-04T04:53:01.918Z,4.50
2023-04-04T04:55:30.059Z,4.20
2023-04-04T04:58:06.368Z,4.30
2023-04-04T05:00:35.377Z,4.30
2023-04-04T05:03:07.066Z,5.20
2023-04-04T05:05:43.873Z,5.50
2023-04-04T05:08:13.806Z,5.40
2023-04-04T05:10:52.885Z,7.90
2023-04-04T05:13:21.662Z,7.00
2023-04-04T05:15:50.710Z,6.70
2023-04-04T05:18:19.139Z,7.00
2023-04-04T05:20:53.192Z,7.20
2023-04-04T05:23:21.889Z,6.90
2023-04-04T05:25:51.716Z,7.50
2023-04-04T05:28:21.633Z,6.50
2023-04-04T05:30:50.299Z,6.20
2023-04-04T05:33:23.405Z,5.80
2023-04-04T05:36:13.246Z,5.20
2023-04-04T05:38:52.580Z,5.30
2023-04-04T05:41:22.290Z,4.50
2023-04-04T05:43:50.974Z,4.10
2023-04-04T05:46:23.597Z,4.70
2023-04-04T05:48:53.731Z,4.80
2023-04-04T05:51:22.264Z,23.00
2023-04-04T05:54:10.483Z,18.70
2023-04-04T05:56:39.163Z,5.50
2023-04-04T05:59:12.110Z,5.80
2023-04-04T06:01:52.071Z,5.50
2023-04-04T06:04:20.098Z,5.70
2023-04-04T06:06:48.304Z,6.00
2023-04-04T06:09:16.698Z,5.90
2023-04-04T06:11:44.660Z,5.50
2023-04-04T06:14:15.248Z,5.50
2023-04-04T06:16:44.624Z,5.50
2023-04-04T06:19:13.354Z,5.10
2023-04-04T06:21:42.458Z,5.10
2023-04-04T06:24:12.199Z,4.60
2023-04-04T06:26:40.400Z,5.60
2023-04-04T06:29:08.420Z,5.10
2023-04-04T06:31:38.832Z,5.70
2023-04-04T06:34:14.915Z,5.60
2023-04-04T06:36:55.823Z,5.80
2023-04-04T06:39:27.715Z,5.40
2023-04-04T06:41:59.250Z,5.30
2023-04-04T06:44:30.808Z,6.10
2023-04-04T06:46:59.000Z,6.10
2023-04-04T06:49:27.114Z,6.30
2023-04-04T06:51:55.328Z,5.70
2023-04-04T06:54:23.409Z,5.10
2023-04-04T06:56:52.292Z,5.70
2023-04-04T06:59:20.471Z,5.20
2023-04-04T07:01:48.641Z,4.60
2023-04-04T07:04:19.742Z,5.00
2023-04-04T07:06:47.752Z,5.20
2023-04-04T07:09:28.183Z,5.50
2023-04-04T07:11:57.742Z,5.30
2023-04-04T07:14:26.445Z,5.90
2023-04-04T07:16:55.547Z,6.40
2023-04-04T07:19:25.113Z,5.40
2023-04-04T07:21:54.553Z,5.50
2023-04-04T07:24:23.152Z,5.10
2023-04-04T07:26:51.627Z,5.40
2023-04-04T07:29:21.621Z,5.80
2023-04-04T07:31:49.790Z,6.20
2023-04-04T07:34:18.056Z,5.10
2023-04-04T07:36:46.866Z,5.60
2023-04-04T07:39:14.918Z,5.00
2023-04-04T07:41:42.992Z,5.60
2023-04-04T07:44:11.069Z,5.80
2023-04-04T07:46:39.181Z,5.10
2023-04-04T07:49:07.872Z,5.90
2023-04-04T07:51:36.342Z,6.00
2023-04-04T07:54:04.446Z,5.70
2023-04-04T07:56:32.457Z,5.90
2023-04-04T07:59:00.801Z,6.00
2023-04-04T08:01:28.984Z,5.70
2023-04-04T08:03:57.308Z,7.50
2023-04-04T08:06:25.862Z,6.80
2023-04-04T08:08:54.443Z,5.40
2023-04-04T08:11:23.252Z,5.30
2023-04-04T08:13:52.170Z,6.60
2023-04-04T08:16:21.278Z,7.10
2023-04-04T08:18:50.289Z,7.00
2023-04-04T08:21:19.396Z,6.20
2023-04-04T08:23:47.888Z,6.30
2023-04-04T08:26:16.101Z,5.60
2023-04-04T08:28:45.735Z,5.50
2023-04-04T08:31:13.991Z,5.80
2023-04-04T08:33:47.165Z,6.30
2023-04-04T08:36:16.489Z,6.40
2023-04-04T08:38:44.799Z,7.10
2023-04-04T08:41:13.484Z,7.40
2023-04-04T08:43:46.658Z,6.70
2023-04-04T08:46:15.938Z,7.60
2023-04-04T08:48:44.930Z,7.90
2023-04-04T08:51:14.911Z,6.50
2023-04-04T08:53:43.211Z,7.20
2023-04-04T08:56:12.532Z,7.10
2023-04-04T08:58:40.755Z,7.60
2023-04-04T09:01:09.012Z,6.70
2023-04-04T09:03:38.185Z,6.80
2023-04-04T09:06:06.813Z,32.30
2023-04-04T09:08:35.186Z,8.60
2023-04-04T09:11:04.618Z,6.40
2023-04-04T09:13:32.786Z,6.60
2023-04-04T09:16:01.418Z,7.80
2023-04-04T09:18:30.130Z,7.60
2023-04-04T09:20:58.393Z,7.80
2023-04-04T09:23:26.654Z,8.10
2023-04-04T09:26:03.820Z,8.60
2023-04-04T09:28:33.850Z,13.70
2023-04-04T09:31:05.005Z,9.30
2023-04-04T09:33:34.749Z,8.60
2023-04-04T09:36:08.079Z,9.80
2023-04-04T09:38:45.710Z,8.60
2023-04-04T09:41:16.321Z,8.70
2023-04-04T09:43:45.731Z,8.80
2023-04-04T09:46:16.208Z,8.30
2023-04-04T09:48:53.423Z,7.30
2023-04-04T09:51:22.214Z,7.50
2023-04-04T09:53:51.996Z,9.00
2023-04-04T09:56:20.306Z,8.00
2023-04-04T09:59:02.597Z,8.30
2023-04-04T10:01:33.628Z,9.30
2023-04-04T10:04:04.919Z,9.40
2023-04-04T10:06:33.350Z,10.00
2023-04-04T10:09:03.994Z,10.40
2023-04-04T10:11:36.290Z,14.10
2023-04-04T10:14:04.868Z,12.70
2023-04-04T10:16:38.197Z,11.10
2023-04-04T10:19:08.882Z,10.10
2023-04-04T10:21:37.409Z,9.40
2023-04-04T10:24:10.345Z,9.00
2023-04-04T10:26:40.573Z,9.00
2023-04-04T10:29:12.227Z,8.90
2023-04-04T10:31:47.239Z,9.30
2023-04-04T10:34:49.498Z,9.40
2023-04-04T10:37:28.840Z,8.90
2023-04-04T10:40:19.951Z,9.70
2023-04-04T10:42:51.837Z,9.60
2023-04-04T10:45:21.610Z,10.00
2023-04-04T10:47:51.116Z,9.70
2023-04-04T10:50:21.054Z,11.10
2023-04-04T10:52:50.455Z,11.50
2023-04-04T10:55:19.743Z,10.50
2023-04-04T10:57:52.718Z,10.10
2023-04-04T11:00:25.725Z,9.70
2023-04-04T11:03:02.509Z,9.50
2023-04-04T11:05:37.789Z,9.30
2023-04-04T11:08:09.629Z,10.60
2023-04-04T11:10:43.695Z,10.00
2023-04-04T11:13:19.032Z,10.60
2023-04-04T11:18:30.688Z,10.30
2023-04-04T11:21:03.461Z,9.50
2023-04-04T11:23:50.377Z,9.40
2023-04-04T11:26:34.440Z,10.70
2023-04-04T11:29:04.521Z,11.80
2023-04-04T11:31:35.405Z,11.50
2023-04-04T11:34:12.559Z,12.30
2023-04-04T11:36:41.646Z,11.80
2023-04-04T11:39:15.805Z,12.00
2023-04-04T11:42:14.196Z,10.70
2023-04-04T11:45:03.285Z,10.00
2023-04-04T11:47:32.129Z,7.70
2023-04-04T11:50:07.700Z,7.50
2023-04-04T11:52:36.108Z,6.80
2023-04-04T11:55:16.927Z,6.30
2023-04-04T11:57:47.446Z,6.90
2023-04-04T12:00:37.216Z,7.20
2023-04-04T12:03:09.840Z,7.10
2023-04-04T12:05:41.360Z,6.60
2023-04-04T12:08:12.533Z,5.70
2023-04-04T12:10:41.386Z,6.70
2023-04-04T12:13:10.999Z,6.10
2023-04-04T12:15:39.414Z,3.60
2023-04-04T12:18:09.307Z,3.50
2023-04-04T12:20:42.006Z,4.30
2023-04-04T12:23:10.331Z,4.30
2023-04-04T12:25:40.532Z,5.10
2023-04-04T12:28:09.629Z,5.40
2023-04-04T12:30:39.383Z,4.40
2023-04-04T12:33:07.750Z,5.40
2023-04-04T12:35:36.452Z,5.20
2023-04-04T12:38:07.646Z,4.70
2023-04-04T12:40:39.547Z,4.80
2023-04-04T12:43:09.625Z,4.00
2023-04-04T12:45:42.720Z,4.70
2023-04-04T12:48:18.345Z,3.90
2023-04-04T12:50:55.159Z,5.60
2023-04-04T12:56:05.265Z,4.60
2023-04-04T13:01:22.149Z,6.20
2023-04-04T13:03:50.530Z,6.70
2023-04-04T13:06:20.018Z,5.60
2023-04-04T13:08:54.906Z,5.40
2023-04-04T13:11:23.914Z,5.60
2023-04-04T13:14:03.345Z,4.80
2023-04-04T13:16:35.860Z,4.80
2023-04-04T13:19:05.115Z,4.70
2023-04-04T13:21:33.505Z,4.50
2023-04-04T13:24:03.542Z,4.50
2023-04-04T13:26:31.803Z,4.80
2023-04-04T13:29:00.130Z,4.00
2023-04-04T13:31:29.218Z,4.50
2023-04-04T13:33:57.404Z,4.20
2023-04-04T13:36:26.410Z,4.30
2023-04-04T13:38:55.142Z,4.40
2023-04-04T13:41:23.306Z,5.60
2023-04-04T13:43:52.553Z,6.00
2023-04-04T13:46:20.955Z,5.40
2023-04-04T13:48:49.226Z,5.40
2023-04-04T13:51:17.436Z,5.00
2023-04-04T13:53:45.706Z,4.70
2023-04-04T13:56:18.337Z,3.40
2023-04-04T13:58:48.411Z,4.20
2023-04-04T14:01:16.922Z,4.40
2023-04-04T14:03:45.526Z,4.70
2023-04-04T14:06:13.827Z,4.00
2023-04-04T14:08:41.979Z,4.40
2023-04-04T14:11:10.074Z,3.70
2023-04-04T14:13:39.284Z,3.50
2023-04-04T14:16:12.337Z,3.40
2023-04-04T14:18:40.589Z,3.10
2023-04-04T14:21:08.913Z,3.20
2023-04-04T14:23:37.216Z,3.20
2023-04-04T14:26:05.203Z,3.40
2023-04-04T14:28:33.870Z,3.60
2023-04-04T14:31:02.211Z,2.50
2023-04-04T14:33:30.937Z,2.80
2023-04-04T14:35:59.076Z,3.10
2023-04-04T14:38:27.473Z,3.50
2023-04-04T14:40:55.656Z,2.60
2023-04-04T14:43:23.968Z,4.90
2023-04-04T14:45:52.667Z,4.80
2023-04-04T14:48:20.731Z,4.60
2023-04-04T14:50:49.002Z,3.90
2023-04-04T14:53:17.354Z,3.90
2023-04-04T14:55:45.683Z,4.20
2023-04-04T14:58:14.233Z,3.30
2023-04-04T15:00:42.593Z,3.50
2023-04-04T15:03:11.339Z,3.70
2023-04-04T15:05:39.662Z,3.80
2023-04-04T15:08:08.473Z,4.30
2023-04-04T15:10:36.425Z,3.20
2023-04-04T15:13:04.626Z,3.90
2023-04-04T15:15:32.709Z,4.40
2023-04-04T15:18:02.240Z,4.10
2023-04-04T15:20:30.799Z,4.10
2023-04-04T15:22:59.002Z,4.50
2023-04-04T15:25:27.112Z,4.40
2023-04-04T15:27:55.155Z,5.30
2023-04-04T15:30:23.808Z,5.80
2023-04-04T15:32:53.892Z,6.20
2023-04-04T15:35:23.320Z,6.00
2023-04-04T15:37:51.455Z,6.00
2023-04-04T15:40:20.422Z,6.20
2023-04-04T15:42:48.867Z,5.60
2023-04-04T15:45:17.059Z,5.80
2023-04-04T15:47:46.796Z,6.70
2023-04-04T15:50:15.217Z,7.30
2023-04-04T15:52:43.384Z,7.30
2023-04-04T15:55:14.524Z,6.80
2023-04-04T15:57:44.855Z,6.70
2023-04-04T16:00:14.570Z,6.20
2023-04-04T16:02:43.383Z,7.20
2023-04-04T16:05:12.074Z,6.80
2023-04-04T16:07:40.162Z,7.80
2023-04-04T16:10:09.227Z,8.30
2023-04-04T16:12:37.300Z,7.60
2023-04-04T16:15:07.869Z,7.70
2023-04-04T16:17:36.041Z,6.90
2023-04-04T16:20:05.676Z,7.60
2023-04-04T16:22:33.688Z,6.30
2023-04-04T16:25:01.655Z,6.30
2023-04-04T16:27:29.888Z,7.10
2023-04-04T16:29:58.159Z,6.70
2023-04-04T16:32:26.574Z,6.20
2023-04-04T16:34:54.678Z,6.40
2023-04-04T16:37:23.533Z,7.00
2023-04-04T16:39:52.246Z,7.30
2023-04-04T16:42:20.533Z,7.20
2023-04-04T16:44:48.952Z,7.50
2023-04-04T16:47:16.779Z,7.40
2023-04-04T16:49:45.059Z,7.40
2023-04-04T16:52:14.917Z,7.90
2023-04-04T16:54:43.086Z,7.00
2023-04-04T16:57:11.386Z,8.10
2023-04-04T16:59:39.513Z,8.20
2023-04-04T17:02:08.435Z,8.20
2023-04-04T17:04:41.100Z,7.80
2023-04-04T17:07:09.911Z,7.30
2023-04-04T17:09:38.723Z,6.40
2023-04-04T17:12:06.957Z,8.00
2023-04-04T17:14:35.876Z,7.90
2023-04-04T17:17:05.446Z,8.10
2023-04-04T17:19:35.350Z,8.10
2023-04-04T17:22:03.632Z,8.60
2023-04-04T17:24:31.671Z,9.30
2023-04-04T17:27:01.618Z,9.40
2023-04-04T17:29:29.765Z,8.20
2023-04-04T17:31:58.591Z,9.60
2023-04-04T17:34:27.165Z,9.90
2023-04-04T17:36:55.812Z,10.30
2023-04-04T17:39:24.371Z,10.10
2023-04-04T17:41:52.858Z,8.90
2023-04-04T17:44:22.332Z,9.80
2023-04-04T17:46:50.384Z,10.70
2023-04-04T17:49:20.653Z,10.80
2023-04-04T17:51:50.298Z,11.40
2023-04-04T17:54:18.204Z,10.10
2023-04-04T17:56:47.220Z,9.50
2023-04-04T17:59:15.900Z,7.20
2023-04-04T18:01:44.687Z,7.80
2023-04-04T18:04:13.074Z,6.60
2023-04-04T18:06:41.883Z,5.90
2023-04-04T18:09:10.731Z,5.90
2023-04-04T18:11:39.560Z,4.30
2023-04-04T18:14:08.835Z,4.60
2023-04-04T18:16:40.460Z,5.30
2023-04-04T18:19:10.207Z,5.30
2023-04-04T18:21:38.734Z,5.30
2023-04-04T18:24:11.993Z,5.20
2023-04-04T18:26:40.493Z,4.20
2023-04-04T18:29:08.893Z,4.50
2023-04-04T18:31:36.966Z,4.50
2023-04-04T18:34:05.503Z,5.00
2023-04-04T18:36:34.229Z,5.60
2023-04-04T18:39:03.325Z,4.50
2023-04-04T18:41:32.686Z,3.10
2023-04-04T18:44:00.900Z,3.90
2023-04-04T18:46:29.265Z,4.60
2023-04-04T18:48:57.370Z,4.40
2023-04-04T18:51:26.304Z,4.20
2023-04-04T18:53:54.811Z,4.30
2023-04-04T18:56:23.370Z,4.80
2023-04-04T18:58:51.930Z,4.80
2023-04-04T19:01:20.906Z,5.00
2023-04-04T19:03:51.587Z,6.20
2023-04-04T19:06:26.235Z,5.10
2023-04-04T19:08:57.866Z,5.30
2023-04-04T19:11:26.508Z,4.10
2023-04-04T19:13:54.816Z,4.30
2023-04-04T19:16:24.279Z,3.70
2023-04-04T19:18:52.292Z,4.30
2023-04-04T19:21:20.735Z,4.80
2023-04-04T19:23:48.698Z,5.00
2023-04-04T19:26:18.272Z,4.20
2023-04-04T19:28:47.032Z,4.30
2023-04-04T19:31:22.389Z,3.80
2023-04-04T19:33:55.390Z,5.20
2023-04-04T19:36:24.753Z,5.50
2023-04-04T19:38:55.989Z,4.10
2023-04-04T19:41:36.159Z,4.50
2023-04-04T19:44:06.762Z,5.10
2023-04-04T19:46:35.244Z,4.30
2023-04-04T19:49:13.663Z,4.20
2023-04-04T19:51:57.063Z,4.30
2023-04-04T19:54:31.656Z,4.80
2023-04-04T19:57:05.113Z,5.10
2023-04-04T19:59:51.412Z,4.00
2023-04-04T20:02:32.527Z,3.90
2023-04-04T20:05:01.536Z,4.10
2023-04-04T20:07:29.826Z,3.70
2023-04-04T20:09:58.087Z,2.90
2023-04-04T20:12:26.525Z,3.70
2023-04-04T20:14:59.335Z,3.80
2023-04-04T20:17:27.412Z,3.00
2023-04-04T20:19:55.307Z,3.50
2023-04-04T20:22:23.374Z,3.70
2023-04-04T20:24:51.285Z,2.40
2023-04-04T20:27:24.367Z,2.80
2023-04-04T20:29:54.438Z,3.70
2023-04-04T20:32:22.703Z,3.60
2023-04-04T20:34:50.983Z,3.70
2023-04-04T20:37:23.835Z,3.70
2023-04-04T20:39:56.270Z,3.70
2023-04-04T20:42:30.662Z,3.10
2023-04-04T20:45:26.946Z,3.40
2023-04-04T20:50:27.498Z,3.00
2023-04-04T20:53:06.303Z,3.10
2023-04-04T20:55:35.620Z,3.30
2023-04-04T20:58:09.432Z,3.20
2023-04-04T21:00:41.015Z,2.80
2023-04-04T21:03:13.169Z,2.90
2023-04-04T21:05:41.285Z,2.80
2023-04-04T21:08:24.690Z,3.70
2023-04-04T21:11:02.412Z,2.90
2023-04-04T21:13:41.572Z,2.80
2023-04-04T21:16:12.111Z,2.10
2023-04-04T21:18:41.875Z,2.50
2023-04-04T21:21:19.864Z,2.70
2023-04-04T21:23:53.259Z,2.50
2023-04-04T21:26:37.259Z,2.30
2023-04-04T21:29:25.138Z,2.60
2023-04-04T21:31:54.838Z,3.10
2023-04-04T21:34:25.300Z,2.50
2023-04-04T21:36:56.198Z,3.30
2023-04-04T21:39:29.981Z,3.50
2023-04-04T21:42:06.945Z,4.10
2023-04-04T21:44:36.276Z,3.50
2023-04-04T21:47:04.243Z,2.50
2023-04-04T21:49:32.224Z,3.00
2023-04-04T21:52:00.189Z,3.10
2023-04-04T21:54:28.229Z,3.00
2023-04-04T21:56:56.174Z,2.80
2023-04-04T21:59:24.041Z,2.40
2023-04-04T22:01:52.102Z,3.00
2023-04-04T22:04:20.152Z,3.10
2023-04-04T22:06:48.136Z,2.50
2023-04-04T22:09:16.128Z,3.20
2023-04-04T22:11:47.166Z,2.10
2023-04-04T22:14:18.113Z,2.40
2023-04-04T22:16:46.512Z,2.20
2023-04-04T22:19:14.681Z,1.90
2023-04-04T22:21:48.090Z,1.90
2023-04-04T22:24:18.734Z,3.00
2023-04-04T22:26:47.089Z,1.90
2023-04-04T22:29:15.116Z,2.60
2023-04-04T22:31:43.085Z,2.60
2023-04-04T22:34:14.085Z,2.80
2023-04-04T22:36:43.931Z,2.90
2023-04-04T22:39:12.142Z,2.50
2023-04-04T22:41:39.965Z,2.60
2023-04-04T22:44:07.840Z,3.10
2023-04-04T22:46:35.761Z,3.10
2023-04-04T22:49:07.071Z,2.80
2023-04-04T22:51:44.188Z,2.50
2023-04-04T22:54:14.637Z,2.30
2023-04-04T22:56:42.820Z,2.50
2023-04-04T22:59:11.381Z,2.80
2023-04-04T23:01:39.767Z,2.20
2023-04-04T23:04:08.240Z,1.70
2023-04-04T23:06:36.372Z,2.80
2023-04-04T23:09:04.385Z,2.60
2023-04-04T23:11:32.434Z,3.10
2023-04-04T23:14:00.720Z,3.20
2023-04-04T23:16:29.101Z,2.30
2023-04-04T23:18:57.286Z,2.50
2023-04-04T23:21:25.324Z,2.10
2023-04-04T23:23:53.242Z,2.10
2023-04-04T23:26:21.225Z,2.70
2023-04-04T23:28:50.815Z,2.40
2023-04-04T23:31:18.772Z,2.10
2023-04-04T23:33:46.714Z,2.20
2023-04-04T23:36:16.138Z,2.30
2023-04-04T23:38:44.451Z,2.20
2023-04-04T23:41:12.862Z,2.50
2023-04-04T23:43:41.062Z,2.40
2023-04-04T23:46:09.059Z,1.90
2023-04-04T23:48:37.175Z,2.30
2023-04-04T23:51:05.992Z,2.50
2023-04-04T23:53:34.985Z,2.50
2023-04-04T23:56:03.523Z,2.40
2023-04-04T23:58:31.458Z,1.90
